createdAt,value
2018-07-15T00:01:15.340Z,17.93
2018-07-15T00:03:43.798Z,22.10
2018-07-15T00:06:12.263Z,17.47
2018-07-15T00:08:40.676Z,23.60
2018-07-15T00:11:09.131Z,16.75
2018-07-15T00:13:37.571Z,19.97
2018-07-15T00:16:06.029Z,19.00
2018-07-15T00:18:34.642Z,16.13
2018-07-15T00:21:03.480Z,23.50
2018-07-15T00:23:31.923Z,20.50
2018-07-15T00:26:00.355Z,18.73
2018-07-15T00:28:28.780Z,21.27
2018-07-15T00:30:57.225Z,26.80
2018-07-15T00:33:25.902Z,26.55
2018-07-15T00:35:54.366Z,20.83
2018-07-15T00:38:22.813Z,26.93
2018-07-15T00:40:51.265Z,25.23
2018-07-15T00:43:19.723Z,29.30
2018-07-15T00:45:48.424Z,28.47
2018-07-15T00:48:16.907Z,35.07
2018-07-15T00:50:45.361Z,27.43
2018-07-15T00:53:14.004Z,26.37
2018-07-15T00:55:42.451Z,22.03
2018-07-15T00:58:10.923Z,28.07
2018-07-15T01:00:44.572Z,32.30
2018-07-15T01:03:13.074Z,26.33
2018-07-15T01:05:41.495Z,24.77
2018-07-15T01:08:09.957Z,22.35
2018-07-15T01:10:38.362Z,19.40
2018-07-15T01:13:07.044Z,28.73
2018-07-15T01:15:36.013Z,22.27
2018-07-15T01:18:04.695Z,19.93
2018-07-15T01:20:33.182Z,21.10
2018-07-15T01:23:01.736Z,29.37
2018-07-15T01:25:30.484Z,20.10
2018-07-15T01:27:59.463Z,22.97
2018-07-15T01:30:27.918Z,20.43
2018-07-15T01:32:56.355Z,23.27
2018-07-15T01:35:24.824Z,20.30
2018-07-15T01:37:53.323Z,21.25
2018-07-15T01:40:22.062Z,30.60
2018-07-15T01:42:50.498Z,23.93
2018-07-15T01:45:18.943Z,25.88
2018-07-15T01:47:47.420Z,25.63
2018-07-15T01:50:16.165Z,25.40
2018-07-15T01:52:44.584Z,24.60
2018-07-15T01:55:13.049Z,24.03
2018-07-15T01:57:41.459Z,27.90
2018-07-15T02:00:10.153Z,28.00
2018-07-15T02:02:38.627Z,27.00
2018-07-15T02:05:07.644Z,25.90
2018-07-15T02:07:37.182Z,28.20
2018-07-15T02:10:06.090Z,31.20
2018-07-15T02:12:34.486Z,29.40
2018-07-15T02:15:02.924Z,29.03
2018-07-15T02:17:31.351Z,29.87
2018-07-15T02:19:59.808Z,30.33
2018-07-15T02:22:28.255Z,31.50
2018-07-15T02:24:56.724Z,40.30
2018-07-15T02:27:25.224Z,35.58
2018-07-15T02:29:53.665Z,33.63
2018-07-15T02:32:22.458Z,29.25
2018-07-15T02:34:50.917Z,31.87
2018-07-15T02:37:19.552Z,28.57
2018-07-15T02:39:48.003Z,24.20
2018-07-15T02:42:17.315Z,26.42
2018-07-15T02:44:46.071Z,26.10
2018-07-15T02:47:14.524Z,28.77
2018-07-15T02:49:43.020Z,26.30
2018-07-15T02:52:11.478Z,26.53
2018-07-15T02:54:40.304Z,26.17
2018-07-15T02:57:08.748Z,27.30
2018-07-15T02:59:37.208Z,27.00
2018-07-15T03:02:05.647Z,29.17
2018-07-15T03:04:34.058Z,28.38
2018-07-15T03:07:02.520Z,26.00
2018-07-15T03:09:30.981Z,25.03
2018-07-15T03:11:59.391Z,30.67
2018-07-15T03:14:27.841Z,27.00
2018-07-15T03:16:56.294Z,28.27
2018-07-15T03:19:24.791Z,25.40
2018-07-15T03:21:53.266Z,26.67
2018-07-15T03:24:21.871Z,24.07
2018-07-15T03:26:50.704Z,24.43
2018-07-15T03:29:19.175Z,22.93
2018-07-15T03:31:47.598Z,28.13
2018-07-15T03:34:16.032Z,25.73
2018-07-15T03:36:44.495Z,29.50
2018-07-15T03:39:12.968Z,23.33
2018-07-15T03:41:41.410Z,24.85
2018-07-15T03:44:09.868Z,29.57
2018-07-15T03:46:38.289Z,30.15
2018-07-15T03:49:37.679Z,31.50
2018-07-15T03:52:06.330Z,28.00
2018-07-15T03:54:34.768Z,24.57
2018-07-15T03:57:03.267Z,22.80
2018-07-15T03:59:31.723Z,24.17
2018-07-15T04:02:00.210Z,30.27
2018-07-15T04:04:28.627Z,25.40
2018-07-15T04:06:57.044Z,22.73
2018-07-15T04:09:25.531Z,26.00
2018-07-15T04:11:54.007Z,28.15
2018-07-15T04:14:22.495Z,21.93
2018-07-15T04:16:50.896Z,23.67
2018-07-15T04:19:19.671Z,20.97
2018-07-15T04:21:48.091Z,15.20
2018-07-15T04:24:17.280Z,14.27
2018-07-15T04:26:45.781Z,35.78
2018-07-15T04:29:14.239Z,20.07
2018-07-15T04:31:42.904Z,14.35
2018-07-15T04:34:11.539Z,16.90
2018-07-15T04:36:40.014Z,11.97
2018-07-15T04:39:09.691Z,13.17
2018-07-15T04:41:38.380Z,18.47
2018-07-15T04:44:07.496Z,18.55
2018-07-15T04:46:35.983Z,17.80
2018-07-15T04:49:04.767Z,22.37
2018-07-15T04:51:33.282Z,16.70
2018-07-15T04:54:01.705Z,22.20
2018-07-15T04:56:30.129Z,20.03
2018-07-15T04:58:58.683Z,20.00
2018-07-15T05:01:27.130Z,26.30
2018-07-15T05:03:55.534Z,21.53
2018-07-15T05:06:24.012Z,23.10
2018-07-15T05:08:52.448Z,28.07
2018-07-15T05:11:20.972Z,30.83
2018-07-15T05:13:49.459Z,20.60
2018-07-15T05:16:18.074Z,24.77
2018-07-15T05:18:46.507Z,18.60
2018-07-15T05:21:14.936Z,20.43
2018-07-15T05:23:43.383Z,22.22
2018-07-15T05:26:11.866Z,22.50
2018-07-15T05:28:40.333Z,17.33
2018-07-15T05:31:08.801Z,22.27
2018-07-15T05:33:38.226Z,17.30
2018-07-15T05:36:06.684Z,19.80
2018-07-15T05:38:35.131Z,24.87
2018-07-15T05:41:03.641Z,21.53
2018-07-15T05:43:32.095Z,19.70
2018-07-15T05:46:00.696Z,23.17
2018-07-15T05:48:29.146Z,29.33
2018-07-15T05:50:57.738Z,29.43
2018-07-15T05:53:26.205Z,28.83
2018-07-15T05:55:54.661Z,33.78
2018-07-15T05:58:23.113Z,30.00
2018-07-15T06:00:51.529Z,27.27
2018-07-15T06:03:19.984Z,22.30
2018-07-15T06:05:48.463Z,25.70
2018-07-15T06:08:16.954Z,30.30
2018-07-15T06:10:45.479Z,21.33
2018-07-15T06:13:13.895Z,28.57
2018-07-15T06:15:43.434Z,28.30
2018-07-15T06:18:11.858Z,20.50
2018-07-15T06:20:40.281Z,43.30
2018-07-15T06:23:08.729Z,31.77
2018-07-15T06:25:37.184Z,28.98
2018-07-15T06:28:05.658Z,35.20
2018-07-15T06:30:34.118Z,40.37
2018-07-15T06:33:02.711Z,39.57
2018-07-15T06:35:31.159Z,36.93
2018-07-15T06:37:59.591Z,36.03
2018-07-15T06:40:28.094Z,36.20
2018-07-15T06:42:56.530Z,36.40
2018-07-15T06:45:24.977Z,27.83
2018-07-15T06:47:53.407Z,33.67
2018-07-15T06:50:21.847Z,30.83
2018-07-15T06:52:50.299Z,32.75
2018-07-15T06:55:18.715Z,37.80
2018-07-15T06:57:47.184Z,36.50
2018-07-15T07:00:15.656Z,32.97
2018-07-15T07:02:44.125Z,31.33
2018-07-15T07:05:12.616Z,35.33
2018-07-15T07:07:41.335Z,35.53
2018-07-15T07:10:09.746Z,34.10
2018-07-15T07:12:38.184Z,33.40
2018-07-15T07:15:07.276Z,38.20
2018-07-15T07:17:35.780Z,46.87
2018-07-15T07:20:04.264Z,35.97
2018-07-15T07:22:32.795Z,38.27
2018-07-15T07:25:01.242Z,34.03
2018-07-15T07:27:29.738Z,37.03
2018-07-15T07:29:58.460Z,33.00
2018-07-15T07:32:26.959Z,31.97
2018-07-15T07:34:55.447Z,33.48
2018-07-15T07:37:24.275Z,38.60
2018-07-15T07:39:52.746Z,48.57
2018-07-15T07:42:21.209Z,35.83
2018-07-15T07:44:49.671Z,38.03
2018-07-15T07:47:18.117Z,35.83
2018-07-15T07:49:46.591Z,42.53
2018-07-15T07:52:15.360Z,52.17
2018-07-15T07:54:43.752Z,35.20
2018-07-15T07:57:12.196Z,35.03
2018-07-15T07:59:40.627Z,34.53
2018-07-15T08:02:09.065Z,35.80
2018-07-15T08:04:37.547Z,30.10
2018-07-15T08:07:06.005Z,27.77
2018-07-15T08:09:34.500Z,23.00
2018-07-15T08:12:03.344Z,26.40
2018-07-15T08:14:31.816Z,31.13
2018-07-15T08:17:00.441Z,27.53
2018-07-15T08:19:29.122Z,31.53
2018-07-15T08:21:57.574Z,19.70
2018-07-15T08:24:26.418Z,19.23
2018-07-15T08:26:55.141Z,21.90
2018-07-15T08:29:23.993Z,18.40
2018-07-15T08:31:52.464Z,19.07
2018-07-15T08:34:20.894Z,29.23
2018-07-15T08:36:49.353Z,21.70
2018-07-15T08:39:18.107Z,20.70
2018-07-15T08:41:47.122Z,16.70
2018-07-15T08:44:15.545Z,17.90
2018-07-15T08:46:44.187Z,23.57
2018-07-15T08:49:12.666Z,12.93
2018-07-15T08:51:41.483Z,17.77
2018-07-15T08:54:09.988Z,12.83
2018-07-15T08:56:38.392Z,10.40
2018-07-15T08:59:06.932Z,8.53
2018-07-15T09:01:35.413Z,15.03
2018-07-15T09:04:04.228Z,12.25
2018-07-15T09:06:32.748Z,11.27
2018-07-15T09:09:01.168Z,13.63
2018-07-15T09:11:29.624Z,10.13
2018-07-15T09:16:32.995Z,9.70
2018-07-15T09:19:01.551Z,9.43
2018-07-15T09:21:29.967Z,6.27
2018-07-15T09:23:58.538Z,7.53
2018-07-15T09:26:27.354Z,16.47
2018-07-15T09:28:55.867Z,5.93
2018-07-15T09:31:24.328Z,8.00
2018-07-15T09:33:53.158Z,108.27
2018-07-15T09:36:21.648Z,22.17
2018-07-15T09:38:50.277Z,10.10
2018-07-15T09:41:18.703Z,7.67
2018-07-15T09:43:47.384Z,6.70
2018-07-15T09:46:16.083Z,8.93
2018-07-15T09:48:44.513Z,6.30
2018-07-15T09:51:13.173Z,6.20
2018-07-15T09:53:41.664Z,6.27
2018-07-15T09:56:10.616Z,6.62
2018-07-15T09:58:39.127Z,6.07
2018-07-15T10:01:07.927Z,6.90
2018-07-15T10:03:36.455Z,8.60
2018-07-15T10:06:05.018Z,6.07
2018-07-15T10:08:33.576Z,6.70
2018-07-15T10:11:02.077Z,5.67
2018-07-15T10:13:30.520Z,6.75
2018-07-15T10:15:58.960Z,8.37
2018-07-15T10:18:27.438Z,6.00
2018-07-15T10:20:55.880Z,5.77
2018-07-15T10:23:24.631Z,5.70
2018-07-15T10:25:53.091Z,6.07
2018-07-15T10:28:21.807Z,7.10
2018-07-15T10:30:50.404Z,5.60
2018-07-15T10:33:19.289Z,5.20
2018-07-15T10:35:47.687Z,6.50
2018-07-15T10:38:16.383Z,6.03
2018-07-15T10:40:45.152Z,5.80
2018-07-15T10:43:13.637Z,5.00
2018-07-15T10:45:42.206Z,5.10
2018-07-15T10:48:10.660Z,5.77
2018-07-15T10:50:39.157Z,8.90
2018-07-15T10:53:07.640Z,5.63
2018-07-15T10:55:36.144Z,9.40
2018-07-15T10:58:04.744Z,6.33
2018-07-15T11:00:33.239Z,5.70
2018-07-15T11:03:01.703Z,6.23
2018-07-15T11:05:30.204Z,7.37
2018-07-15T11:07:58.859Z,6.10
2018-07-15T11:10:27.300Z,6.50
2018-07-15T11:12:55.757Z,6.13
2018-07-15T11:15:24.197Z,5.70
2018-07-15T11:17:52.960Z,5.77
2018-07-15T11:20:21.411Z,6.37
2018-07-15T11:22:50.080Z,5.63
2018-07-15T11:25:18.548Z,6.15
2018-07-15T11:27:47.008Z,5.50
2018-07-15T11:30:15.680Z,6.67
2018-07-15T11:32:44.360Z,5.53
2018-07-15T11:35:12.955Z,8.83
2018-07-15T11:37:41.422Z,5.60
2018-07-15T11:40:10.172Z,5.77
2018-07-15T11:42:38.609Z,5.20
2018-07-15T11:45:07.179Z,5.03
2018-07-15T11:47:35.803Z,5.00
2018-07-15T11:50:04.581Z,5.00
2018-07-15T11:52:33.094Z,5.47
2018-07-15T11:55:01.503Z,10.20
2018-07-15T11:57:29.906Z,5.77
2018-07-15T11:59:58.370Z,5.10
2018-07-15T12:02:26.978Z,4.90
2018-07-15T12:04:55.807Z,6.08
2018-07-15T12:07:24.229Z,7.40
2018-07-15T12:09:52.671Z,6.83
2018-07-15T12:12:21.390Z,4.63
2018-07-15T12:14:49.820Z,4.53
2018-07-15T12:17:18.644Z,4.10
2018-07-15T12:19:47.228Z,3.70
2018-07-15T12:22:15.737Z,4.10
2018-07-15T12:24:44.208Z,3.67
2018-07-15T12:27:12.727Z,3.77
2018-07-15T12:29:41.339Z,3.13
2018-07-15T12:32:09.847Z,3.30
2018-07-15T12:34:38.687Z,3.20
2018-07-15T12:37:07.231Z,2.43
2018-07-15T12:39:35.632Z,3.00
2018-07-15T12:42:04.329Z,4.03
2018-07-15T12:44:33.060Z,3.50
2018-07-15T12:47:01.506Z,4.20
2018-07-15T12:49:30.423Z,8.63
2018-07-15T12:51:59.082Z,4.53
2018-07-15T12:54:27.732Z,6.60
2018-07-15T12:56:56.277Z,4.63
2018-07-15T12:59:24.713Z,4.30
2018-07-15T13:01:53.153Z,3.10
2018-07-15T13:04:21.632Z,3.20
2018-07-15T13:06:50.432Z,3.93
2018-07-15T13:09:19.215Z,3.73
2018-07-15T13:11:47.923Z,6.07
2018-07-15T13:14:16.353Z,3.97
2018-07-15T13:16:44.821Z,4.17
2018-07-15T13:19:13.658Z,2.87
2018-07-15T13:21:42.083Z,4.20
2018-07-15T13:24:10.551Z,3.07
2018-07-15T13:26:38.947Z,2.90
2018-07-15T13:29:08.003Z,3.20
2018-07-15T13:31:36.584Z,2.70
2018-07-15T13:34:05.007Z,3.50
2018-07-15T13:36:33.591Z,4.00
2018-07-15T13:39:02.172Z,3.17
2018-07-15T13:41:30.740Z,4.37
2018-07-15T13:43:59.397Z,15.53
2018-07-15T13:46:27.867Z,5.67
2018-07-15T13:48:56.259Z,4.67
2018-07-15T13:51:24.944Z,6.53
2018-07-15T13:53:53.620Z,6.50
2018-07-15T13:56:22.135Z,4.47
2018-07-15T13:58:50.916Z,5.40
2018-07-15T14:01:19.436Z,5.50
2018-07-15T14:03:47.823Z,13.65
2018-07-15T14:06:16.301Z,7.70
2018-07-15T14:08:44.762Z,4.90
2018-07-15T14:11:13.209Z,6.83
2018-07-15T14:13:41.634Z,5.67
2018-07-15T14:16:10.075Z,5.17
2018-07-15T14:18:38.554Z,5.63
2018-07-15T14:21:07.552Z,4.93
2018-07-15T14:23:36.303Z,5.20
2018-07-15T14:26:04.952Z,5.73
2018-07-15T14:28:33.538Z,5.20
2018-07-15T14:31:02.020Z,4.40
2018-07-15T14:33:30.787Z,3.77
2018-07-15T14:35:59.683Z,3.80
2018-07-15T14:38:28.499Z,8.73
2018-07-15T14:40:57.008Z,5.00
2018-07-15T14:43:25.527Z,4.57
2018-07-15T14:45:55.028Z,3.50
2018-07-15T14:48:23.887Z,3.83
2018-07-15T14:50:52.496Z,3.67
2018-07-15T14:53:20.970Z,3.50
2018-07-15T14:55:49.454Z,5.87
2018-07-15T14:58:17.851Z,3.80
2018-07-15T15:00:46.723Z,3.93
2018-07-15T15:03:15.147Z,3.53
2018-07-15T15:05:43.800Z,3.37
2018-07-15T15:08:12.482Z,3.70
2018-07-15T15:10:40.951Z,5.60
2018-07-15T15:13:09.464Z,3.57
2018-07-15T15:15:37.907Z,3.07
2018-07-15T15:18:06.340Z,4.33
2018-07-15T15:20:34.782Z,4.40
2018-07-15T15:23:03.232Z,6.67
2018-07-15T15:25:31.645Z,3.80
2018-07-15T15:28:00.400Z,3.60
2018-07-15T15:30:28.868Z,4.00
2018-07-15T15:32:57.287Z,3.80
2018-07-15T15:35:25.760Z,3.67
2018-07-15T15:37:54.159Z,4.40
2018-07-15T15:40:22.769Z,10.33
2018-07-15T15:42:52.126Z,5.00
2018-07-15T15:45:20.665Z,4.60
2018-07-15T15:47:49.166Z,3.63
2018-07-15T15:50:17.712Z,3.53
2018-07-15T15:52:46.266Z,3.60
2018-07-15T15:55:14.904Z,3.70
2018-07-15T15:57:43.339Z,6.37
2018-07-15T16:00:12.183Z,8.20
2018-07-15T16:02:40.839Z,3.50
2018-07-15T16:05:10.320Z,6.00
2018-07-15T16:07:38.856Z,4.03
2018-07-15T16:10:07.998Z,3.17
2018-07-15T16:12:36.445Z,4.03
2018-07-15T16:15:05.161Z,3.40
2018-07-15T16:17:33.643Z,4.47
2018-07-15T16:20:02.167Z,10.00
2018-07-15T16:22:31.000Z,4.20
2018-07-15T16:24:59.633Z,4.07
2018-07-15T16:27:28.155Z,3.80
2018-07-15T16:29:57.604Z,4.35
2018-07-15T16:32:26.225Z,3.60
2018-07-15T16:34:54.632Z,5.63
2018-07-15T16:37:23.096Z,3.30
2018-07-15T16:39:51.509Z,3.40
2018-07-15T16:42:20.362Z,2.80
2018-07-15T16:44:48.884Z,3.25
2018-07-15T16:47:17.418Z,2.67
2018-07-15T16:49:45.897Z,3.10
2018-07-15T16:52:14.343Z,2.97
2018-07-15T16:54:43.034Z,2.63
2018-07-15T16:57:11.715Z,2.75
2018-07-15T16:59:40.306Z,2.73
2018-07-15T17:02:08.738Z,3.50
2018-07-15T17:04:37.129Z,5.63
2018-07-15T17:07:06.112Z,10.73
2018-07-15T17:09:35.053Z,2.93
2018-07-15T17:12:03.794Z,4.73
2018-07-15T17:14:32.256Z,4.13
2018-07-15T17:17:00.748Z,3.93
2018-07-15T17:19:29.575Z,3.57
2018-07-15T17:21:58.027Z,4.67
2018-07-15T17:24:26.581Z,3.73
2018-07-15T17:26:55.046Z,4.55
2018-07-15T17:29:24.068Z,8.00
2018-07-15T17:31:52.982Z,5.23
2018-07-15T17:34:21.482Z,5.70
2018-07-15T17:36:50.589Z,4.87
2018-07-15T17:39:19.208Z,6.03
2018-07-15T17:41:47.706Z,5.47
2018-07-15T17:44:16.835Z,5.62
2018-07-15T17:46:45.399Z,6.30
2018-07-15T17:49:13.921Z,4.60
2018-07-15T17:51:42.700Z,4.93
2018-07-15T17:54:11.380Z,5.50
2018-07-15T17:56:39.904Z,10.33
2018-07-15T17:59:08.554Z,9.87
2018-07-15T18:01:36.981Z,5.40
2018-07-15T18:04:05.434Z,8.47
2018-07-15T18:06:34.027Z,6.60
2018-07-15T18:09:02.670Z,4.87
2018-07-15T18:11:31.211Z,5.22
2018-07-15T18:13:59.629Z,5.10
2018-07-15T18:16:28.208Z,4.83
2018-07-15T18:18:56.680Z,15.43
2018-07-15T18:21:25.511Z,6.95
2018-07-15T18:23:53.969Z,5.30
2018-07-15T18:26:22.375Z,8.13
2018-07-15T18:28:50.761Z,9.67
2018-07-15T18:31:19.248Z,8.70
2018-07-15T18:33:47.680Z,9.30
2018-07-15T18:36:16.469Z,8.55
2018-07-15T18:38:44.899Z,8.20
2018-07-15T18:41:13.580Z,6.60
2018-07-15T18:43:42.336Z,7.50
2018-07-15T18:46:10.940Z,7.17
2018-07-15T18:48:39.493Z,10.10
2018-07-15T18:51:08.036Z,4.93
2018-07-15T18:53:36.546Z,10.57
2018-07-15T18:56:05.164Z,8.67
2018-07-15T18:58:33.654Z,5.57
2018-07-15T19:01:02.351Z,5.70
2018-07-15T19:03:30.784Z,9.38
2018-07-15T19:05:59.207Z,7.30
2018-07-15T19:08:27.752Z,11.90
2018-07-15T19:10:56.512Z,16.23
2018-07-15T19:13:25.011Z,10.60
2018-07-15T19:15:53.434Z,6.80
2018-07-15T19:18:21.868Z,10.83
2018-07-15T19:20:50.316Z,5.57
2018-07-15T19:23:18.731Z,6.37
2018-07-15T19:25:47.195Z,7.17
2018-07-15T19:28:15.861Z,6.20
2018-07-15T19:30:44.321Z,6.47
2018-07-15T19:33:13.127Z,5.10
2018-07-15T19:35:41.566Z,5.85
2018-07-15T19:38:10.235Z,5.17
2018-07-15T19:40:38.687Z,13.67
2018-07-15T19:43:07.136Z,8.53
2018-07-15T19:45:35.784Z,5.42
2018-07-15T19:48:04.282Z,6.57
2018-07-15T19:50:32.810Z,11.97
2018-07-15T19:53:01.269Z,8.47
2018-07-15T19:55:29.737Z,9.58
2018-07-15T19:57:58.180Z,21.73
2018-07-15T20:00:27.179Z,6.40
2018-07-15T20:02:56.446Z,8.27
2018-07-15T20:05:24.888Z,7.33
2018-07-15T20:07:53.386Z,5.00
2018-07-15T20:10:21.887Z,11.00
2018-07-15T20:12:50.343Z,6.90
2018-07-15T20:15:18.830Z,6.72
2018-07-15T20:17:47.292Z,4.90
2018-07-15T20:20:15.785Z,4.43
2018-07-15T20:22:44.264Z,6.53
2018-07-15T20:25:12.963Z,10.60
2018-07-15T20:27:41.461Z,5.00
2018-07-15T20:30:10.047Z,4.57
2018-07-15T20:32:38.474Z,5.30
2018-07-15T20:35:07.122Z,7.00
2018-07-15T20:37:35.632Z,5.53
2018-07-15T20:40:04.136Z,15.60
2018-07-15T20:42:32.876Z,6.50
2018-07-15T20:45:01.272Z,6.63
2018-07-15T20:47:29.953Z,5.90
2018-07-15T20:49:58.644Z,5.60
2018-07-15T20:52:27.108Z,7.57
2018-07-15T20:54:55.655Z,5.77
2018-07-15T20:57:24.414Z,7.67
2018-07-15T20:59:53.026Z,6.90
2018-07-15T21:02:21.681Z,14.60
2018-07-15T21:04:50.132Z,11.00
2018-07-15T21:07:18.845Z,7.50
2018-07-15T21:09:47.258Z,8.13
2018-07-15T21:12:16.499Z,7.90
2018-07-15T21:14:44.947Z,7.30
2018-07-15T21:17:13.411Z,8.03
2018-07-15T21:19:41.843Z,11.70
2018-07-15T21:22:10.313Z,12.90
2018-07-15T21:24:39.059Z,8.80
2018-07-15T21:27:07.483Z,10.37
2018-07-15T21:29:35.940Z,10.23
2018-07-15T21:32:04.508Z,8.33
2018-07-15T21:34:32.925Z,7.03
2018-07-15T21:37:01.391Z,8.43
2018-07-15T21:39:29.801Z,8.07
2018-07-15T21:41:58.255Z,8.65
2018-07-15T21:44:26.659Z,7.17
2018-07-15T21:46:55.348Z,11.20
2018-07-15T21:49:23.830Z,6.80
2018-07-15T21:51:52.273Z,8.63
2018-07-15T21:54:20.744Z,10.03
2018-07-15T21:56:49.188Z,6.72
2018-07-15T21:59:17.598Z,5.87
2018-07-15T22:01:46.106Z,6.97
2018-07-15T22:04:14.522Z,9.60
2018-07-15T22:06:54.166Z,10.20
2018-07-15T22:09:48.183Z,6.80
2018-07-15T22:12:16.635Z,7.40
2018-07-15T22:14:45.053Z,6.20
2018-07-15T22:17:13.496Z,6.10
2018-07-15T22:19:41.983Z,9.47
2018-07-15T22:22:10.412Z,6.00
2018-07-15T22:24:39.187Z,6.50
2018-07-15T22:27:07.670Z,6.80
2018-07-15T22:29:36.130Z,7.23
2018-07-15T22:32:05.200Z,6.00
2018-07-15T22:34:33.714Z,7.77
2018-07-15T22:37:02.185Z,6.83
2018-07-15T22:39:30.627Z,8.73
2018-07-15T22:41:59.350Z,7.78
2018-07-15T22:44:28.024Z,8.20
2018-07-15T22:46:56.434Z,8.23
2018-07-15T22:49:24.854Z,9.30
2018-07-15T22:51:53.361Z,7.53
2018-07-15T22:54:21.792Z,10.90
2018-07-15T22:56:50.243Z,7.47
2018-07-15T22:59:18.700Z,8.00
2018-07-15T23:01:47.171Z,9.30
2018-07-15T23:04:15.640Z,12.40
2018-07-15T23:06:44.114Z,11.00
2018-07-15T23:09:12.592Z,9.67
2018-07-15T23:11:41.042Z,15.83
2018-07-15T23:14:09.665Z,9.20
2018-07-15T23:16:38.071Z,10.67
2018-07-15T23:19:06.496Z,15.57
2018-07-15T23:21:34.952Z,9.07
2018-07-15T23:24:03.371Z,8.07
2018-07-15T23:26:31.881Z,9.03
2018-07-15T23:29:00.312Z,10.75
2018-07-15T23:31:28.739Z,10.38
2018-07-15T23:33:57.176Z,9.80
2018-07-15T23:36:25.592Z,8.93
2018-07-15T23:38:54.091Z,10.97
2018-07-15T23:41:22.529Z,8.67
2018-07-15T23:43:50.994Z,10.07
2018-07-15T23:46:19.491Z,14.30
2018-07-15T23:48:47.896Z,9.73
2018-07-15T23:51:16.487Z,9.60
2018-07-15T23:53:44.931Z,10.20
2018-07-15T23:56:13.393Z,11.73
2018-07-15T23:58:41.802Z,9.30
